createdAt,value
2023-03-19T00:17:54.129Z,8.60
2023-03-19T00:47:24.832Z,8.50
2023-03-19T01:02:07.456Z,8.60
2023-03-19T01:09:27.211Z,8.40
2023-03-19T01:19:16.356Z,8.30
2023-03-19T01:21:46.157Z,8.20
2023-03-19T01:24:15.231Z,8.20
2023-03-19T01:34:28.195Z,8.20
2023-03-19T01:37:01.131Z,8.20
2023-03-19T01:42:03.711Z,8.20
2023-03-19T01:47:37.144Z,8.10
2023-03-19T01:50:40.308Z,8.10
2023-03-19T01:53:30.084Z,8.10
2023-03-19T01:56:28.801Z,8.10
2023-03-19T01:59:09.633Z,8.00
2023-03-19T02:01:57.271Z,8.10
2023-03-19T02:04:27.118Z,8.00
2023-03-19T02:06:58.743Z,8.00
2023-03-19T02:09:27.079Z,8.00
2023-03-19T02:11:55.752Z,8.10
2023-03-19T02:19:27.675Z,8.10
2023-03-19T02:21:56.624Z,8.10
2023-03-19T02:24:28.775Z,8.10
2023-03-19T02:27:02.623Z,8.80
2023-03-19T02:36:58.861Z,8.20
2023-03-19T02:39:32.402Z,8.30
2023-03-19T02:42:00.466Z,8.30
2023-03-19T03:04:08.671Z,8.40
2023-03-19T03:16:25.802Z,8.50
2023-03-19T03:33:39.711Z,8.60
2023-03-19T03:38:34.559Z,8.50
2023-03-19T03:41:01.224Z,8.40
2023-03-19T03:50:50.247Z,8.50
2023-03-19T03:55:49.010Z,8.50
2023-03-19T04:00:47.933Z,8.50
2023-03-19T04:30:15.795Z,8.70
2023-03-19T04:40:07.194Z,8.70
2023-03-19T04:42:36.137Z,8.80
2023-03-19T04:47:37.679Z,8.70
2023-03-19T04:55:04.619Z,8.50
2023-03-19T05:00:08.716Z,8.70
2023-03-19T05:02:39.197Z,8.70
2023-03-19T05:12:30.639Z,8.60
2023-03-19T05:25:37.607Z,8.70
2023-03-19T05:56:05.082Z,8.80
2023-03-19T06:28:53.467Z,8.70
2023-03-19T06:33:55.089Z,8.70
2023-03-19T06:48:42.201Z,8.60
2023-03-19T06:53:35.966Z,8.90
2023-03-19T07:10:47.761Z,9.30
2023-03-19T07:13:14.634Z,9.40
2023-03-19T07:18:08.362Z,9.70
2023-03-19T07:35:18.524Z,10.40
2023-03-19T07:45:07.612Z,10.80
2023-03-19T07:50:01.593Z,10.80
2023-03-19T08:02:17.931Z,11.30
2023-03-19T08:12:07.435Z,11.50
2023-03-19T08:44:01.448Z,12.40
2023-03-19T08:53:52.967Z,12.60
2023-03-19T09:01:15.233Z,12.70
2023-03-19T09:03:43.760Z,12.80
2023-03-19T09:06:11.527Z,12.90
2023-03-19T09:08:38.596Z,12.90
2023-03-19T09:11:06.111Z,13.00
2023-03-19T09:15:59.890Z,13.10
2023-03-19T09:20:54.468Z,13.20
2023-03-19T09:23:22.138Z,15.70
2023-03-19T09:30:47.139Z,13.40
2023-03-19T09:40:43.492Z,13.70
2023-03-19T09:43:22.907Z,13.60
2023-03-19T09:45:50.445Z,13.80
2023-03-19T09:48:28.829Z,13.90
2023-03-19T09:50:56.480Z,13.90
2023-03-19T09:53:49.267Z,14.00
2023-03-19T09:58:44.021Z,14.10
2023-03-19T10:01:28.577Z,14.10
2023-03-19T10:04:14.145Z,14.10
2023-03-19T10:06:41.303Z,14.10
2023-03-19T10:09:35.542Z,14.10
2023-03-19T10:12:27.646Z,14.20
2023-03-19T10:17:34.626Z,14.30
2023-03-19T10:20:15.812Z,14.30
2023-03-19T10:22:51.374Z,14.30
2023-03-19T10:25:26.931Z,14.40
2023-03-19T10:28:01.518Z,14.40
2023-03-19T10:30:32.381Z,14.30
2023-03-19T10:33:21.413Z,14.40
2023-03-19T10:35:57.049Z,14.40
2023-03-19T10:38:27.106Z,14.30
2023-03-19T10:41:18.918Z,14.40
2023-03-19T10:43:56.701Z,14.40
2023-03-19T10:48:50.909Z,14.40
2023-03-19T10:51:23.392Z,14.50
2023-03-19T10:53:52.939Z,14.60
2023-03-19T10:56:25.750Z,14.60
2023-03-19T10:58:58.315Z,14.60
2023-03-19T11:01:35.144Z,14.60
2023-03-19T11:04:11.839Z,14.60
2023-03-19T11:06:38.968Z,14.60
2023-03-19T11:09:08.629Z,14.60
2023-03-19T11:11:36.804Z,14.70
2023-03-19T11:14:10.051Z,14.70
2023-03-19T11:16:55.605Z,14.60
2023-03-19T11:19:26.354Z,14.60
2023-03-19T11:22:09.099Z,14.70
2023-03-19T11:24:41.638Z,14.70
2023-03-19T11:27:09.808Z,14.80
2023-03-19T11:29:41.409Z,14.90
2023-03-19T11:35:01.426Z,15.00
2023-03-19T11:37:52.995Z,15.00
2023-03-19T11:40:47.405Z,15.10
2023-03-19T11:43:32.746Z,15.20
2023-03-19T11:46:02.619Z,15.20
2023-03-19T11:48:54.000Z,15.30
2023-03-19T11:51:27.033Z,15.30
2023-03-19T11:54:13.827Z,15.30
2023-03-19T11:56:48.048Z,15.50
2023-03-19T11:59:44.024Z,15.50
2023-03-19T12:02:21.018Z,15.50
2023-03-19T12:04:58.287Z,15.50
2023-03-19T12:07:44.885Z,15.60
2023-03-19T12:10:53.993Z,15.60
2023-03-19T12:13:54.869Z,15.70
2023-03-19T12:16:49.445Z,15.70
2023-03-19T12:19:42.975Z,15.70
2023-03-19T12:22:19.420Z,15.70
2023-03-19T12:27:28.715Z,15.70
2023-03-19T12:30:11.761Z,15.70
2023-03-19T12:33:00.606Z,19.70
2023-03-19T12:35:39.321Z,15.70
2023-03-19T12:38:24.076Z,15.80
2023-03-19T12:41:11.595Z,15.70
2023-03-19T12:43:58.748Z,15.80
2023-03-19T12:46:36.822Z,15.80
2023-03-19T12:51:40.478Z,15.80
2023-03-19T12:54:18.844Z,15.80
2023-03-19T12:57:08.601Z,15.80
2023-03-19T12:59:48.065Z,15.80
2023-03-19T13:02:29.650Z,15.80
2023-03-19T13:05:01.485Z,15.80
2023-03-19T13:07:58.944Z,15.80
2023-03-19T13:12:54.715Z,15.80
2023-03-19T13:15:41.418Z,15.70
2023-03-19T13:18:31.952Z,15.70
2023-03-19T13:21:35.657Z,16.60
2023-03-19T13:24:21.351Z,15.70
2023-03-19T13:26:49.982Z,15.70
2023-03-19T13:29:26.145Z,15.80
2023-03-19T13:31:59.549Z,15.70
2023-03-19T13:34:28.749Z,15.70
2023-03-19T13:37:06.938Z,15.70
2023-03-19T13:39:35.454Z,15.70
2023-03-19T13:42:34.605Z,15.70
2023-03-19T13:45:04.410Z,15.60
2023-03-19T13:50:15.959Z,15.40
2023-03-19T13:52:45.469Z,15.30
2023-03-19T13:55:32.776Z,15.20
2023-03-19T13:58:37.529Z,15.20
2023-03-19T14:01:12.026Z,15.20
2023-03-19T14:03:54.311Z,15.20
2023-03-19T14:06:42.336Z,15.20
2023-03-19T14:09:31.192Z,15.10
2023-03-19T14:12:16.179Z,15.10
2023-03-19T14:14:48.523Z,15.00
2023-03-19T14:17:19.574Z,15.00
2023-03-19T14:22:16.599Z,15.00
2023-03-19T14:24:57.768Z,15.00
2023-03-19T14:27:30.581Z,15.00
2023-03-19T14:30:00.813Z,14.90
2023-03-19T14:32:42.030Z,14.90
2023-03-19T14:35:16.111Z,14.80
2023-03-19T14:40:30.801Z,14.70
2023-03-19T14:43:13.283Z,14.70
2023-03-19T14:45:52.383Z,14.60
2023-03-19T14:48:53.781Z,14.60
2023-03-19T14:51:36.530Z,14.60
2023-03-19T14:54:37.686Z,14.50
2023-03-19T14:57:08.868Z,14.20
2023-03-19T14:59:40.255Z,14.30
2023-03-19T15:02:38.455Z,14.30
2023-03-19T15:05:25.861Z,14.30
2023-03-19T15:08:00.109Z,14.30
2023-03-19T15:10:41.185Z,14.30
2023-03-19T15:13:21.527Z,14.30
2023-03-19T15:15:57.846Z,14.20
2023-03-19T15:18:26.264Z,14.00
2023-03-19T15:20:54.480Z,13.90
2023-03-19T15:23:28.336Z,13.80
2023-03-19T15:26:01.628Z,13.80
2023-03-19T15:28:30.687Z,13.80
2023-03-19T15:31:14.145Z,13.70
2023-03-19T15:38:55.280Z,13.70
2023-03-19T15:41:24.489Z,13.70
2023-03-19T15:43:52.030Z,13.70
2023-03-19T15:46:24.848Z,13.70
2023-03-19T15:49:08.158Z,13.70
2023-03-19T15:51:35.695Z,13.70
2023-03-19T15:54:03.089Z,13.70
2023-03-19T15:56:32.181Z,13.70
2023-03-19T15:59:00.569Z,13.70
2023-03-19T16:01:27.953Z,13.70
2023-03-19T16:04:01.727Z,13.60
2023-03-19T16:06:36.374Z,13.60
2023-03-19T16:09:30.816Z,13.60
2023-03-19T16:16:59.786Z,13.50
2023-03-19T16:21:53.416Z,13.40
2023-03-19T16:24:42.556Z,13.50
2023-03-19T16:27:21.381Z,13.50
2023-03-19T16:29:56.123Z,13.50
2023-03-19T16:32:25.647Z,13.50
2023-03-19T16:37:38.414Z,13.40
2023-03-19T16:40:15.360Z,13.30
2023-03-19T16:42:52.855Z,13.20
2023-03-19T16:45:26.299Z,13.20
2023-03-19T16:47:55.074Z,13.20
2023-03-19T16:50:29.108Z,13.10
2023-03-19T16:52:56.190Z,13.00
2023-03-19T16:55:35.050Z,13.10
2023-03-19T16:58:15.542Z,13.10
2023-03-19T17:00:43.605Z,13.10
2023-03-19T17:03:18.411Z,13.10
2023-03-19T17:05:46.608Z,13.10
2023-03-19T17:10:44.764Z,13.20
2023-03-19T17:13:32.116Z,13.10
2023-03-19T17:16:02.490Z,13.20
2023-03-19T17:18:33.195Z,13.10
2023-03-19T17:21:06.221Z,13.10
2023-03-19T17:26:03.034Z,13.10
2023-03-19T17:28:32.275Z,13.00
2023-03-19T17:33:28.714Z,13.00
2023-03-19T17:35:58.313Z,13.00
2023-03-19T17:38:34.224Z,12.90
2023-03-19T17:45:55.487Z,12.90
2023-03-19T17:48:25.716Z,12.90
2023-03-19T17:50:57.238Z,12.90
2023-03-19T17:58:20.848Z,12.80
2023-03-19T18:00:49.261Z,12.80
2023-03-19T18:03:18.893Z,12.80
2023-03-19T18:05:45.727Z,12.70
2023-03-19T18:08:17.463Z,12.70
2023-03-19T18:10:44.653Z,12.70
2023-03-19T18:15:41.078Z,12.60
2023-03-19T18:18:15.324Z,12.50
2023-03-19T18:23:11.384Z,12.50
2023-03-19T18:28:05.788Z,12.30
2023-03-19T18:30:35.497Z,12.40
2023-03-19T18:33:06.105Z,12.40
2023-03-19T18:35:38.163Z,12.40
2023-03-19T18:40:33.127Z,12.30
2023-03-19T18:45:30.796Z,12.30
2023-03-19T18:47:57.931Z,12.30
2023-03-19T18:50:28.520Z,12.30
2023-03-19T18:52:55.688Z,12.20
2023-03-19T18:55:27.436Z,12.30
2023-03-19T18:58:02.136Z,12.30
2023-03-19T19:00:34.081Z,12.30
2023-03-19T19:03:02.493Z,12.20
2023-03-19T19:05:31.344Z,12.30
2023-03-19T19:08:02.279Z,12.30
2023-03-19T19:10:33.171Z,12.30
2023-03-19T19:13:01.297Z,12.30
2023-03-19T19:20:25.804Z,12.20
2023-03-19T19:22:53.089Z,12.10
2023-03-19T19:25:22.432Z,12.20
2023-03-19T19:27:56.167Z,12.10
2023-03-19T19:30:23.469Z,12.10
2023-03-19T19:40:14.134Z,12.00
2023-03-19T19:42:42.197Z,12.00
2023-03-19T19:45:33.558Z,12.00
2023-03-19T19:52:56.358Z,11.90
2023-03-19T19:55:25.300Z,11.90
2023-03-19T19:57:54.531Z,11.80
2023-03-19T20:00:28.427Z,11.80
2023-03-19T20:02:56.678Z,11.80
2023-03-19T20:05:26.796Z,11.80
2023-03-19T20:07:55.691Z,11.80
2023-03-19T20:10:25.244Z,11.80
2023-03-19T20:12:55.170Z,11.80
2023-03-19T20:15:25.882Z,11.70
2023-03-19T20:17:53.840Z,11.70
2023-03-19T20:20:23.906Z,11.70
2023-03-19T20:22:51.150Z,11.70
2023-03-19T20:25:20.653Z,11.60
2023-03-19T20:27:49.640Z,11.60
2023-03-19T20:30:20.439Z,11.50
2023-03-19T20:35:18.683Z,11.40
2023-03-19T20:40:14.086Z,11.40
2023-03-19T20:42:42.818Z,11.30
2023-03-19T20:45:17.149Z,11.30
2023-03-19T20:47:44.432Z,11.40
2023-03-19T20:50:18.444Z,11.30
2023-03-19T20:55:21.439Z,11.30
2023-03-19T20:57:51.158Z,13.10
2023-03-19T21:00:27.076Z,11.20
2023-03-19T21:02:55.637Z,11.20
2023-03-19T21:05:24.038Z,11.20
2023-03-19T21:07:52.723Z,11.20
2023-03-19T21:10:36.291Z,11.20
2023-03-19T21:13:03.592Z,11.20
2023-03-19T21:15:30.235Z,11.20
2023-03-19T21:20:30.131Z,11.20
2023-03-19T21:23:05.268Z,11.20
2023-03-19T21:25:32.412Z,11.20
2023-03-19T21:28:03.413Z,11.20
2023-03-19T21:35:25.984Z,11.10
2023-03-19T21:37:53.503Z,11.10
2023-03-19T21:40:28.994Z,11.10
2023-03-19T21:43:00.528Z,11.00
2023-03-19T21:45:36.468Z,11.00
2023-03-19T21:48:09.142Z,11.00
2023-03-19T21:55:32.727Z,10.80
2023-03-19T22:05:27.215Z,10.90
2023-03-19T22:07:54.830Z,10.90
2023-03-19T22:10:23.905Z,10.90
2023-03-19T22:20:17.015Z,10.90
2023-03-19T22:25:15.427Z,10.90
2023-03-19T22:27:43.532Z,10.90
2023-03-19T22:30:35.802Z,10.90
2023-03-19T22:33:13.239Z,10.80
2023-03-19T22:40:34.891Z,10.90
2023-03-19T22:45:32.147Z,10.90
2023-03-19T22:48:00.102Z,10.90
2023-03-19T22:50:31.468Z,10.90
2023-03-19T22:52:59.036Z,10.90
2023-03-19T23:00:23.659Z,11.00
2023-03-19T23:02:57.556Z,11.00
2023-03-19T23:05:26.319Z,11.00
2023-03-19T23:07:54.978Z,11.00
2023-03-19T23:10:23.847Z,11.00
2023-03-19T23:15:18.784Z,11.10
2023-03-19T23:17:47.405Z,11.10
2023-03-19T23:20:19.845Z,11.10
2023-03-19T23:25:16.319Z,11.00
2023-03-19T23:27:44.055Z,11.10
2023-03-19T23:30:23.536Z,11.00
2023-03-19T23:35:21.072Z,11.00
2023-03-19T23:40:16.915Z,11.00
2023-03-19T23:42:46.852Z,11.00
2023-03-19T23:45:34.268Z,11.00
2023-03-19T23:48:04.862Z,11.00
2023-03-19T23:50:32.568Z,11.00
2023-03-19T23:52:59.771Z,10.90
